Time,TemperatureF,DewpointF,PressureIn,WindDirection,WindDirectionDegrees,WindSpeedMPH,WindSpeedGustMPH,Humidity,HourlyPrecipIn,Conditions,Clouds,dailyrainin,SoftwareType,DateUTC
2013-01-05 00:03:00,37.0,27.4,30.23,NE,45,0.0,1.0,68,0.00,,SKC,0.00,VWS V14.01,2013-01-05 07:03:00,
2013-01-05 00:09:00,37.0,27.8,30.23,NE,45,0.0,0.0,69,0.00,,SKC,0.00,VWS V14.01,2013-01-05 07:09:00,
2013-01-05 00:13:00,36.0,26.8,30.23,NE,45,0.0,1.0,69,0.00,,SKC,0.00,VWS V14.01,2013-01-05 07:13:00,
2013-01-05 00:18:00,36.0,27.2,30.23,NE,45,3.0,3.0,70,0.00,,SKC,0.00,VWS V14.01,2013-01-05 07:18:00,
2013-01-05 00:23:00,36.0,27.2,30.23,NE,45,1.0,3.0,70,0.00,,SKC,0.00,VWS V14.01,2013-01-05 07:23:00,
2013-01-05 00:29:00,36.0,27.5,30.23,NE,45,1.0,2.0,71,0.00,,SKC,0.00,VWS V14.01,2013-01-05 07:29:00,
2013-01-05 00:34:00,36.0,27.5,30.23,ENE,68,0.0,1.0,71,0.00,,SKC,0.00,VWS V14.01,2013-01-05 07:34:00,
2013-01-05 00:39:00,36.0,27.9,30.23,NNE,22,1.0,1.0,72,0.00,,SKC,0.00,VWS V14.01,2013-01-05 07:39:00,
2013-01-05 00:44:00,36.0,27.9,30.23,NE,45,0.0,0.0,72,0.00,,SKC,0.00,VWS V14.01,2013-01-05 07:44:00,
2013-01-05 00:49:00,35.0,26.9,30.23,NE,45,0.0,0.0,72,0.00,,SKC,0.00,VWS V14.01,2013-01-05 07:49:00,
2013-01-05 00:54:00,35.0,26.9,30.23,NNE,22,0.0,1.0,72,0.00,,SKC,0.00,VWS V14.01,2013-01-05 07:54:00,
2013-01-05 00:59:00,35.0,26.9,30.23,NNE,22,0.0,0.0,72,0.00,,SKC,0.00,VWS V14.01,2013-01-05 07:59:00,
2013-01-05 01:04:00,35.0,27.2,30.23,ENE,68,0.0,0.0,73,0.00,,SKC,0.00,VWS V14.01,2013-01-05 08:04:00,
2013-01-05 01:09:00,35.0,27.2,30.23,NE,45,0.0,0.0,73,0.00,,SKC,0.00,VWS V14.01,2013-01-05 08:09:00,
2013-01-05 01:14:00,35.0,27.2,30.23,North,0,0.0,1.0,73,0.00,,SKC,0.00,VWS V14.01,2013-01-05 08:14:00,
2013-01-05 01:19:00,35.0,27.6,30.23,ENE,68,1.0,3.0,74,0.00,,SKC,0.00,VWS V14.01,2013-01-05 08:19:00,
2013-01-05 01:24:00,34.0,26.6,30.22,NNE,22,1.0,2.0,74,0.00,,SKC,0.00,VWS V14.01,2013-01-05 08:24:00,
2013-01-05 01:29:00,34.0,26.9,30.22,NE,45,0.0,0.0,75,0.00,,SKC,0.00,VWS V14.01,2013-01-05 08:29:00,
2013-01-05 01:34:00,34.0,26.9,30.22,NNE,22,0.0,1.0,75,0.00,,SKC,0.00,VWS V14.01,2013-01-05 08:34:00,
2013-01-05 01:39:00,34.0,26.9,30.22,NNE,22,0.0,0.0,75,0.00,,SKC,0.00,VWS V14.01,2013-01-05 08:39:00,
2013-01-05 01:44:00,35.0,27.9,30.22,NNE,22,3.0,3.0,75,0.00,,SKC,0.00,VWS V14.01,2013-01-05 08:44:00,
2013-01-05 01:49:00,35.0,27.9,30.22,NNE,22,2.0,3.0,75,0.00,,SKC,0.00,VWS V14.01,2013-01-05 08:49:00,
2013-01-05 01:54:00,35.0,27.9,30.22,ENE,68,2.0,3.0,75,0.00,,SKC,0.00,VWS V14.01,2013-01-05 08:54:00,
2013-01-05 01:59:00,34.0,26.9,30.22,ENE,68,1.0,1.0,75,0.00,,SKC,0.00,VWS V14.01,2013-01-05 08:59:00,
2013-01-05 02:04:00,34.0,26.9,30.22,NE,45,1.0,1.0,75,0.00,,SKC,0.00,VWS V14.01,2013-01-05 09:04:00,
2013-01-05 02:09:00,34.0,26.9,30.22,NE,45,2.0,2.0,75,0.00,,SKC,0.00,VWS V14.01,2013-01-05 09:09:00,
2013-01-05 02:14:00,34.0,26.6,30.22,ENE,68,0.0,1.0,74,0.00,,SKC,0.00,VWS V14.01,2013-01-05 09:14:00,
2013-01-05 02:19:00,34.0,26.6,30.22,NE,45,2.0,3.0,74,0.00,,SKC,0.00,VWS V14.01,2013-01-05 09:19:00,
2013-01-05 02:24:00,35.0,27.6,30.22,ENE,68,1.0,1.0,74,0.00,,SKC,0.00,VWS V14.01,2013-01-05 09:24:00,
2013-01-05 02:29:00,35.0,27.6,30.22,ENE,68,3.0,3.0,74,0.00,,SKC,0.00,VWS V14.01,2013-01-05 09:29:00,
2013-01-05 02:35:00,34.0,26.6,30.23,ENE,68,3.0,3.0,74,0.00,,SKC,0.00,VWS V14.01,2013-01-05 09:35:00,
2013-01-05 02:40:00,34.0,26.9,30.23,ENE,68,3.0,3.0,75,0.00,,SKC,0.00,VWS V14.01,2013-01-05 09:40:00,
2013-01-05 02:45:00,34.0,27.2,30.23,ENE,68,0.0,1.0,76,0.00,,SKC,0.00,VWS V14.01,2013-01-05 09:45:00,
2013-01-05 02:50:00,33.0,26.3,30.23,ENE,68,2.0,2.0,76,0.00,,SKC,0.00,VWS V14.01,2013-01-05 09:50:00,
2013-01-05 02:55:00,33.0,26.6,30.24,NE,45,0.0,1.0,77,0.00,,SKC,0.00,VWS V14.01,2013-01-05 09:55:00,
2013-01-05 03:00:00,33.0,26.6,30.23,NE,45,0.0,0.0,77,0.00,,SKC,0.00,VWS V14.01,2013-01-05 10:00:00,
2013-01-05 03:05:00,33.0,26.6,30.23,NE,45,2.0,2.0,77,0.00,,SKC,0.00,VWS V14.01,2013-01-05 10:05:00,
2013-01-05 03:10:00,33.0,26.6,30.23,NE,45,2.0,3.0,77,0.00,,SKC,0.00,VWS V14.01,2013-01-05 10:10:00,
2013-01-05 03:15:00,33.0,26.6,30.23,NNE,22,0.0,0.0,77,0.00,,SKC,0.00,VWS V14.01,2013-01-05 10:15:00,
2013-01-05 03:20:00,34.0,27.2,30.24,ENE,68,3.0,3.0,76,0.00,,SKC,0.00,VWS V14.01,2013-01-05 10:20:00,
2013-01-05 03:25:00,34.0,26.9,30.24,NE,45,1.0,2.0,75,0.00,,SKC,0.00,VWS V14.01,2013-01-05 10:25:00,
2013-01-05 03:30:00,34.0,26.9,30.24,NE,45,3.0,3.0,75,0.00,,SKC,0.00,VWS V14.01,2013-01-05 10:30:00,
2013-01-05 03:35:00,35.0,27.6,30.24,NE,45,2.0,3.0,74,0.00,,SKC,0.00,VWS V14.01,2013-01-05 10:35:00,
2013-01-05 03:40:00,35.0,27.2,30.23,NNE,22,3.0,3.0,73,0.00,,SKC,0.00,VWS V14.01,2013-01-05 10:40:00,
2013-01-05 03:45:00,35.0,27.2,30.23,NNE,22,1.0,2.0,73,0.00,,SKC,0.00,VWS V14.01,2013-01-05 10:45:00,
2013-01-05 03:50:00,34.0,26.3,30.23,ENE,68,1.0,1.0,73,0.00,,SKC,0.00,VWS V14.01,2013-01-05 10:50:00,
2013-01-05 03:55:00,35.0,27.2,30.23,ENE,68,0.0,0.0,73,0.00,,SKC,0.00,VWS V14.01,2013-01-05 10:55:00,
2013-01-05 04:00:00,35.0,26.9,30.23,ENE,68,0.0,1.0,72,0.00,,SKC,0.00,VWS V14.01,2013-01-05 11:00:00,
2013-01-05 04:05:00,35.0,26.6,30.23,ENE,68,0.0,1.0,71,0.00,,SKC,0.00,VWS V14.01,2013-01-05 11:05:00,
2013-01-05 04:10:00,36.0,27.2,30.23,NE,45,1.0,3.0,70,0.00,,SKC,0.00,VWS V14.01,2013-01-05 11:10:00,
2013-01-05 04:15:00,36.0,26.8,30.23,NNW,338,0.0,1.0,69,0.00,,SKC,0.00,VWS V14.01,2013-01-05 11:15:00,
2013-01-05 04:20:00,37.0,27.1,30.23,ENE,68,0.0,0.0,67,0.00,,SKC,0.00,VWS V14.01,2013-01-05 11:20:00,
2013-01-05 04:25:00,37.0,26.7,30.23,ENE,68,3.0,3.0,66,0.00,,SKC,0.00,VWS V14.01,2013-01-05 11:25:00,
2013-01-05 04:30:00,37.0,26.7,30.22,ENE,68,3.0,3.0,66,0.00,,SKC,0.00,VWS V14.01,2013-01-05 11:30:00,
2013-01-05 04:35:00,36.0,26.1,30.22,NE,45,0.0,0.0,67,0.00,,SKC,0.00,VWS V14.01,2013-01-05 11:35:00,
2013-01-05 04:40:00,35.0,25.9,30.22,NE,45,1.0,3.0,69,0.00,,SKC,0.00,VWS V14.01,2013-01-05 11:40:00,
2013-01-05 04:45:00,35.0,26.2,30.22,ENE,68,3.0,3.0,70,0.00,,SKC,0.00,VWS V14.01,2013-01-05 11:45:00,
2013-01-05 04:50:00,34.0,25.6,30.22,ENE,68,2.0,3.0,71,0.00,,SKC,0.00,VWS V14.01,2013-01-05 11:50:00,
2013-01-05 04:55:00,34.0,25.9,30.23,NE,45,2.0,2.0,72,0.00,,SKC,0.00,VWS V14.01,2013-01-05 11:55:00,
2013-01-05 05:00:00,34.0,25.9,30.23,NE,45,2.0,2.0,72,0.00,,SKC,0.00,VWS V14.01,2013-01-05 12:00:00,
2013-01-05 05:05:00,34.0,26.3,30.23,ENE,68,0.0,1.0,73,0.00,,SKC,0.00,VWS V14.01,2013-01-05 12:05:00,
2013-01-05 05:10:00,34.0,26.3,30.23,East,90,2.0,3.0,73,0.00,,SKC,0.00,VWS V14.01,2013-01-05 12:10:00,
2013-01-05 05:15:00,33.0,25.6,30.23,ENE,68,3.0,4.0,74,0.00,,SKC,0.00,VWS V14.01,2013-01-05 12:15:00,
2013-01-05 05:20:00,33.0,26.0,30.24,ENE,68,3.0,3.0,75,0.00,,SKC,0.00,VWS V14.01,2013-01-05 12:20:00,
2013-01-05 05:25:00,32.0,25.3,30.24,ENE,68,3.0,5.0,76,0.00,,SKC,0.00,VWS V14.01,2013-01-05 12:25:00,
2013-01-05 05:30:00,32.0,25.6,30.24,NE,45,3.0,3.0,77,0.00,,SKC,0.00,VWS V14.01,2013-01-05 12:30:00,
2013-01-05 05:35:00,33.0,26.3,30.24,NE,45,2.0,3.0,76,0.00,,SKC,0.00,VWS V14.01,2013-01-05 12:35:00,
2013-01-05 05:40:00,33.0,26.3,30.24,North,0,3.0,3.0,76,0.00,,SKC,0.00,VWS V14.01,2013-01-05 12:40:00,
2013-01-05 05:45:00,33.0,26.3,30.25,NE,45,0.0,0.0,76,0.00,,SKC,0.00,VWS V14.01,2013-01-05 12:45:00,
2013-01-05 05:50:00,33.0,26.0,30.25,NE,45,0.0,0.0,75,0.00,,SKC,0.00,VWS V14.01,2013-01-05 12:50:00,
2013-01-05 05:55:00,33.0,26.3,30.25,ENE,68,0.0,0.0,76,0.00,,SKC,0.00,VWS V14.01,2013-01-05 12:55:00,
2013-01-05 06:00:00,32.0,25.3,30.25,ENE,68,0.0,1.0,76,0.00,,SKC,0.00,VWS V14.01,2013-01-05 13:00:00,
2013-01-05 06:05:00,32.0,25.6,30.25,ENE,68,5.0,5.0,77,0.00,,SKC,0.00,VWS V14.01,2013-01-05 13:05:00,
2013-01-05 06:10:00,32.0,25.6,30.26,ENE,68,3.0,4.0,77,0.00,,SKC,0.00,VWS V14.01,2013-01-05 13:10:00,
2013-01-05 06:15:00,31.0,25.0,30.25,ENE,68,2.0,3.0,78,0.00,,SKC,0.00,VWS V14.01,2013-01-05 13:15:00,
2013-01-05 06:21:00,31.0,25.3,30.25,ENE,68,3.0,3.0,79,0.00,,SKC,0.00,VWS V14.01,2013-01-05 13:21:00,
2013-01-05 06:26:00,31.0,25.3,30.26,ENE,68,3.0,4.0,79,0.00,,SKC,0.00,VWS V14.01,2013-01-05 13:26:00,
2013-01-05 06:30:00,31.0,25.6,30.26,ENE,68,3.0,3.0,80,0.00,,SKC,0.00,VWS V14.01,2013-01-05 13:30:00,
2013-01-05 06:35:00,31.0,25.6,30.27,East,90,3.0,3.0,80,0.00,,SKC,0.00,VWS V14.01,2013-01-05 13:35:00,
2013-01-05 06:40:00,31.0,25.6,30.27,ESE,112,3.0,4.0,80,0.00,,SKC,0.00,VWS V14.01,2013-01-05 13:40:00,
2013-01-05 06:46:00,31.0,25.9,30.27,East,90,5.0,6.0,81,0.00,,SKC,0.00,VWS V14.01,2013-01-05 13:46:00,
2013-01-05 06:51:00,31.0,25.9,30.27,ENE,68,5.0,6.0,81,0.00,,SKC,0.00,VWS V14.01,2013-01-05 13:51:00,
2013-01-05 06:55:00,31.0,25.9,30.27,NE,45,4.0,5.0,81,0.00,,SKC,0.00,VWS V14.01,2013-01-05 13:55:00,
2013-01-05 07:01:00,31.0,25.6,30.27,ENE,68,6.0,8.0,80,0.00,,SKC,0.00,VWS V14.01,2013-01-05 14:01:00,
2013-01-05 07:06:00,31.0,25.6,30.27,ENE,68,5.0,6.0,80,0.00,,SKC,0.00,VWS V14.01,2013-01-05 14:06:00,
2013-01-05 07:11:00,32.0,26.2,30.28,ENE,68,3.0,3.0,79,0.00,,SKC,0.00,VWS V14.01,2013-01-05 14:11:00,
2013-01-05 07:16:00,32.0,26.2,30.27,NE,45,3.0,3.0,79,0.00,,SKC,0.00,VWS V14.01,2013-01-05 14:16:00,
2013-01-05 07:21:00,32.0,26.2,30.27,NE,45,1.0,3.0,79,0.00,,SKC,0.00,VWS V14.01,2013-01-05 14:21:00,
2013-01-05 07:26:00,32.0,25.9,30.27,ENE,68,0.0,1.0,78,0.00,,SKC,0.00,VWS V14.01,2013-01-05 14:26:00,
2013-01-05 07:31:00,32.0,25.9,30.28,ENE,68,1.0,2.0,78,0.00,,SKC,0.00,VWS V14.01,2013-01-05 14:31:00,
2013-01-05 07:36:00,32.0,25.9,30.28,ENE,68,5.0,6.0,78,0.00,,SKC,0.00,VWS V14.01,2013-01-05 14:36:00,
2013-01-05 07:41:00,32.0,25.9,30.28,NE,45,3.0,3.0,78,0.00,,SKC,0.00,VWS V14.01,2013-01-05 14:41:00,
2013-01-05 07:46:00,32.0,25.9,30.28,ENE,68,3.0,4.0,78,0.00,,SKC,0.00,VWS V14.01,2013-01-05 14:46:00,
2013-01-05 07:51:00,32.0,25.9,30.28,ENE,68,3.0,6.0,78,0.00,,SKC,0.00,VWS V14.01,2013-01-05 14:51:00,
2013-01-05 07:56:00,32.0,25.9,30.28,ENE,68,7.0,7.0,78,0.00,,SKC,0.00,VWS V14.01,2013-01-05 14:56:00,
2013-01-05 08:01:00,32.0,25.9,30.28,ENE,68,3.0,3.0,78,0.00,,SKC,0.00,VWS V14.01,2013-01-05 15:01:00,
2013-01-05 08:06:00,32.0,25.6,30.28,NE,45,3.0,3.0,77,0.00,,SKC,0.00,VWS V14.01,2013-01-05 15:06:00,
2013-01-05 08:11:00,33.0,26.3,30.28,NE,45,5.0,7.0,76,0.00,,SKC,0.00,VWS V14.01,2013-01-05 15:11:00,
2013-01-05 08:16:00,34.0,26.9,30.29,ENE,68,6.0,6.0,75,0.00,,SKC,0.00,VWS V14.01,2013-01-05 15:16:00,
2013-01-05 08:21:00,34.0,26.6,30.28,ENE,68,6.0,6.0,74,0.00,,SKC,0.00,VWS V14.01,2013-01-05 15:21:00,
2013-01-05 08:26:00,34.0,26.3,30.29,NE,45,5.0,5.0,73,0.00,,SKC,0.00,VWS V14.01,2013-01-05 15:26:00,
2013-01-05 08:31:00,35.0,26.9,30.29,ENE,68,5.0,5.0,72,0.00,,SKC,0.00,VWS V14.01,2013-01-05 15:31:00,
2013-01-05 08:36:00,36.0,27.5,30.29,ESE,112,4.0,5.0,71,0.00,,SKC,0.00,VWS V14.01,2013-01-05 15:36:00,
2013-01-05 08:41:00,36.0,26.8,30.29,ENE,68,5.0,6.0,69,0.00,,SKC,0.00,VWS V14.01,2013-01-05 15:41:00,
2013-01-05 08:46:00,37.0,27.1,30.29,ENE,68,6.0,8.0,67,0.00,,SKC,0.00,VWS V14.01,2013-01-05 15:46:00,
2013-01-05 08:51:00,38.0,27.7,30.29,ENE,68,3.0,5.0,66,0.00,,SKC,0.00,VWS V14.01,2013-01-05 15:51:00,
2013-01-05 08:56:00,39.0,27.5,30.29,NE,45,3.0,5.0,63,0.00,,SKC,0.00,VWS V14.01,2013-01-05 15:56:00,
2013-01-05 09:01:00,40.0,27.2,30.29,ENE,68,4.0,4.0,60,0.00,,SKC,0.00,VWS V14.01,2013-01-05 16:01:00,
2013-01-05 09:06:00,41.0,27.0,30.29,NE,45,5.0,6.0,57,0.00,,SKC,0.00,VWS V14.01,2013-01-05 16:06:00,
2013-01-05 09:11:00,42.0,27.5,30.29,NE,45,3.0,4.0,56,0.00,,SKC,0.00,VWS V14.01,2013-01-05 16:11:00,
2013-01-05 09:16:00,42.0,26.6,30.29,ENE,68,6.0,6.0,54,0.00,,SKC,0.00,VWS V14.01,2013-01-05 16:16:00,
2013-01-05 09:21:00,43.0,28.0,30.29,ENE,68,5.0,6.0,55,0.00,,SKC,0.00,VWS V14.01,2013-01-05 16:21:00,
2013-01-05 09:26:00,44.0,28.4,30.29,East,90,3.0,5.0,54,0.00,,SKC,0.00,VWS V14.01,2013-01-05 16:26:00,
2013-01-05 09:31:00,44.0,28.4,30.29,East,90,4.0,5.0,54,0.00,,SKC,0.00,VWS V14.01,2013-01-05 16:31:00,
2013-01-05 09:36:00,44.0,28.4,30.29,ENE,68,5.0,5.0,54,0.00,,SKC,0.00,VWS V14.01,2013-01-05 16:36:00,
2013-01-05 09:41:00,44.0,28.4,30.29,East,90,6.0,6.0,54,0.00,,SKC,0.00,VWS V14.01,2013-01-05 16:41:00,
2013-01-05 09:46:00,44.0,28.4,30.29,ENE,68,6.0,8.0,54,0.00,,SKC,0.00,VWS V14.01,2013-01-05 16:46:00,
2013-01-05 09:51:00,44.0,28.4,30.29,NE,45,4.0,5.0,54,0.00,,SKC,0.00,VWS V14.01,2013-01-05 16:51:00,
2013-01-05 09:56:00,46.0,29.8,30.29,ENE,68,4.0,5.0,53,0.00,,SKC,0.00,VWS V14.01,2013-01-05 16:56:00,
2013-01-05 10:01:00,47.0,29.8,30.29,East,90,4.0,6.0,51,0.00,,SKC,0.00,VWS V14.01,2013-01-05 17:01:00,
2013-01-05 10:06:00,47.0,28.9,30.29,ENE,68,5.0,7.0,49,0.00,,SKC,0.00,VWS V14.01,2013-01-05 17:06:00,
2013-01-05 10:11:00,48.0,29.8,30.29,East,90,5.0,5.0,49,0.00,,SKC,0.00,VWS V14.01,2013-01-05 17:11:00,
2013-01-05 10:16:00,48.0,29.3,30.29,ENE,68,5.0,5.0,48,0.00,,SKC,0.00,VWS V14.01,2013-01-05 17:16:00,
2013-01-05 10:21:00,48.0,28.8,30.29,NNE,22,3.0,4.0,47,0.00,,SKC,0.00,VWS V14.01,2013-01-05 17:21:00,
2013-01-05 10:26:00,49.0,28.6,30.29,ENE,68,3.0,5.0,45,0.00,,SKC,0.00,VWS V14.01,2013-01-05 17:26:00,
2013-01-05 10:31:00,49.0,27.5,30.29,NE,45,6.0,6.0,43,0.00,,SKC,0.00,VWS V14.01,2013-01-05 17:31:00,
2013-01-05 10:36:00,49.0,27.5,30.29,NNE,22,3.0,3.0,43,0.00,,SKC,0.00,VWS V14.01,2013-01-05 17:36:00,
2013-01-05 10:41:00,50.0,28.4,30.29,NNE,22,2.0,3.0,43,0.00,,SKC,0.00,VWS V14.01,2013-01-05 17:41:00,
2013-01-05 10:46:00,51.0,28.7,30.29,NW,315,3.0,3.0,42,0.00,,SKC,0.00,VWS V14.01,2013-01-05 17:46:00,
2013-01-05 10:51:00,51.0,28.1,30.28,NE,45,3.0,4.0,41,0.00,,SKC,0.00,VWS V14.01,2013-01-05 17:51:00,
2013-01-05 10:56:00,52.0,28.5,30.28,NE,45,2.0,3.0,40,0.00,,SKC,0.00,VWS V14.01,2013-01-05 17:56:00,
2013-01-05 11:01:00,53.0,28.7,30.28,NNW,338,2.0,3.0,39,0.00,,SKC,0.00,VWS V14.01,2013-01-05 18:01:00,
2013-01-05 11:06:00,53.0,28.1,30.28,NE,45,3.0,3.0,38,0.00,,SKC,0.00,VWS V14.01,2013-01-05 18:06:00,
2013-01-05 11:11:00,54.0,28.3,30.28,North,0,3.0,3.0,37,0.00,,SKC,0.00,VWS V14.01,2013-01-05 18:11:00,
2013-01-05 11:16:00,54.0,27.7,30.27,ENE,68,1.0,1.0,36,0.00,,SKC,0.00,VWS V14.01,2013-01-05 18:16:00,
2013-01-05 11:21:00,55.0,27.9,30.27,NE,45,0.0,0.0,35,0.00,,SKC,0.00,VWS V14.01,2013-01-05 18:21:00,
2013-01-05 11:26:00,55.0,27.9,30.27,East,90,1.0,1.0,35,0.00,,SKC,0.00,VWS V14.01,2013-01-05 18:26:00,
2013-01-05 11:31:00,56.0,28.0,30.27,North,0,1.0,1.0,34,0.00,,SKC,0.00,VWS V14.01,2013-01-05 18:31:00,
2013-01-05 11:36:00,56.0,28.0,30.27,NE,45,3.0,3.0,34,0.00,,SKC,0.00,VWS V14.01,2013-01-05 18:36:00,
2013-01-05 11:41:00,56.0,28.0,30.26,ESE,112,3.0,4.0,34,0.00,,SKC,0.00,VWS V14.01,2013-01-05 18:41:00,
2013-01-05 11:46:00,57.0,28.2,30.26,ESE,112,5.0,5.0,33,0.00,,SKC,0.00,VWS V14.01,2013-01-05 18:46:00,
2013-01-05 11:51:00,57.0,28.9,30.25,East,90,4.0,4.0,34,0.00,,SKC,0.00,VWS V14.01,2013-01-05 18:51:00,
2013-01-05 11:56:00,57.0,28.9,30.25,East,90,5.0,5.0,34,0.00,,SKC,0.00,VWS V14.01,2013-01-05 18:56:00,
2013-01-05 12:01:00,57.0,28.9,30.25,SW,225,3.0,3.0,34,0.00,,SKC,0.00,VWS V14.01,2013-01-05 19:01:00,
2013-01-05 12:06:00,58.0,29.1,30.25,SE,135,3.0,3.0,33,0.00,,SKC,0.00,VWS V14.01,2013-01-05 19:06:00,
2013-01-05 12:11:00,58.0,29.1,30.25,SSW,202,0.0,1.0,33,0.00,,SKC,0.00,VWS V14.01,2013-01-05 19:11:00,
2013-01-05 12:16:00,58.0,28.3,30.24,SSE,158,3.0,4.0,32,0.00,,SKC,0.00,VWS V14.01,2013-01-05 19:16:00,
2013-01-05 12:21:00,59.0,29.2,30.24,SW,225,1.0,1.0,32,0.00,,SKC,0.00,VWS V14.01,2013-01-05 19:21:00,
2013-01-05 12:26:00,59.0,28.4,30.24,SSW,202,2.0,3.0,31,0.00,,SKC,0.00,VWS V14.01,2013-01-05 19:26:00,
2013-01-05 12:31:00,59.0,29.2,30.24,SSW,202,2.0,3.0,32,0.00,,SKC,0.00,VWS V14.01,2013-01-05 19:31:00,
2013-01-05 12:36:00,59.0,28.4,30.23,ESE,112,2.0,2.0,31,0.00,,SKC,0.00,VWS V14.01,2013-01-05 19:36:00,
2013-01-05 12:41:00,58.0,27.6,30.23,SE,135,5.0,5.0,31,0.00,,SKC,0.00,VWS V14.01,2013-01-05 19:41:00,
2013-01-05 12:46:00,57.0,28.2,30.23,SSW,202,3.0,5.0,33,0.00,,SKC,0.00,VWS V14.01,2013-01-05 19:46:00,
2013-01-05 12:51:00,58.0,28.3,30.23,South,180,0.0,0.0,32,0.00,,SKC,0.00,VWS V14.01,2013-01-05 19:51:00,
2013-01-05 12:56:00,59.0,28.4,30.22,SSW,202,1.0,3.0,31,0.00,,SKC,0.00,VWS V14.01,2013-01-05 19:56:00,
2013-01-05 13:01:00,60.0,29.3,30.22,SSE,158,3.0,4.0,31,0.00,,SKC,0.00,VWS V14.01,2013-01-05 20:01:00,
2013-01-05 13:06:00,61.0,29.4,30.22,SW,225,3.0,3.0,30,0.00,,SKC,0.00,VWS V14.01,2013-01-05 20:06:00,
2013-01-05 13:11:00,61.0,28.5,30.21,SSW,202,1.0,1.0,29,0.00,,SKC,0.00,VWS V14.01,2013-01-05 20:11:00,
2013-01-05 13:16:00,60.0,27.7,30.21,SE,135,2.0,3.0,29,0.00,,SKC,0.00,VWS V14.01,2013-01-05 20:16:00,
2013-01-05 13:21:00,59.0,28.4,30.21,WSW,248,4.0,5.0,31,0.00,,SKC,0.00,VWS V14.01,2013-01-05 20:21:00,
2013-01-05 13:26:00,58.0,27.6,30.21,West,270,4.0,5.0,31,0.00,,SKC,0.00,VWS V14.01,2013-01-05 20:26:00,
2013-01-05 13:31:00,59.0,27.6,30.21,SSE,158,3.0,3.0,30,0.00,,SKC,0.00,VWS V14.01,2013-01-05 20:31:00,
2013-01-05 13:36:00,60.0,28.5,30.20,SSE,158,4.0,5.0,30,0.00,,SKC,0.00,VWS V14.01,2013-01-05 20:36:00,
2013-01-05 13:41:00,61.0,29.4,30.20,SSW,202,1.0,1.0,30,0.00,,SKC,0.00,VWS V14.01,2013-01-05 20:41:00,
2013-01-05 13:46:00,61.0,28.5,30.20,SSW,202,4.0,4.0,29,0.00,,SKC,0.00,VWS V14.01,2013-01-05 20:46:00,
2013-01-05 13:51:00,61.0,28.5,30.20,South,180,5.0,5.0,29,0.00,,SKC,0.00,VWS V14.01,2013-01-05 20:51:00,
2013-01-05 13:56:00,61.0,29.4,30.20,SSW,202,3.0,3.0,30,0.00,,SKC,0.00,VWS V14.01,2013-01-05 20:56:00,
2013-01-05 14:01:00,59.0,27.6,30.20,SW,225,5.0,6.0,30,0.00,,SKC,0.00,VWS V14.01,2013-01-05 21:01:00,
2013-01-05 14:06:00,59.0,27.6,30.20,West,270,1.0,1.0,30,0.00,,SKC,0.00,VWS V14.01,2013-01-05 21:06:00,
2013-01-05 14:11:00,60.0,28.5,30.20,SSW,202,3.0,3.0,30,0.00,,SKC,0.00,VWS V14.01,2013-01-05 21:11:00,
2013-01-05 14:16:00,61.0,28.5,30.20,South,180,3.0,4.0,29,0.00,,SKC,0.00,VWS V14.01,2013-01-05 21:16:00,
2013-01-05 14:21:00,61.0,28.5,30.20,WSW,248,5.0,5.0,29,0.00,,SKC,0.00,VWS V14.01,2013-01-05 21:21:00,
2013-01-05 14:26:00,60.0,28.5,30.19,West,270,3.0,3.0,30,0.00,,SKC,0.00,VWS V14.01,2013-01-05 21:26:00,
2013-01-05 14:31:00,61.0,28.5,30.19,SW,225,2.0,3.0,29,0.00,,SKC,0.00,VWS V14.01,2013-01-05 21:31:00,
2013-01-05 14:36:00,61.0,28.5,30.19,South,180,2.0,3.0,29,0.00,,SKC,0.00,VWS V14.01,2013-01-05 21:36:00,
2013-01-05 14:41:00,62.0,28.5,30.19,ENE,68,1.0,1.0,28,0.00,,SKC,0.00,VWS V14.01,2013-01-05 21:41:00,
2013-01-05 14:46:00,63.0,29.4,30.19,SSE,158,1.0,1.0,28,0.00,,SKC,0.00,VWS V14.01,2013-01-05 21:46:00,
2013-01-05 14:51:00,63.0,29.4,30.19,SSE,158,0.0,0.0,28,0.00,,SKC,0.00,VWS V14.01,2013-01-05 21:51:00,
2013-01-05 14:56:00,63.0,29.4,30.19,WSW,248,3.0,4.0,28,0.00,,SKC,0.00,VWS V14.01,2013-01-05 21:56:00,
2013-01-05 15:01:00,63.0,29.4,30.19,SW,225,0.0,0.0,28,0.00,,SKC,0.00,VWS V14.01,2013-01-05 22:01:00,
2013-01-05 15:06:00,63.0,29.4,30.19,West,270,3.0,3.0,28,0.00,,SKC,0.00,VWS V14.01,2013-01-05 22:06:00,
2013-01-05 15:11:00,63.0,28.5,30.19,SE,135,3.0,4.0,27,0.00,,SKC,0.00,VWS V14.01,2013-01-05 22:11:00,
2013-01-05 15:16:00,63.0,28.5,30.19,SSW,202,3.0,4.0,27,0.00,,SKC,0.00,VWS V14.01,2013-01-05 22:16:00,
2013-01-05 15:21:00,63.0,28.5,30.19,West,270,4.0,4.0,27,0.00,,SKC,0.00,VWS V14.01,2013-01-05 22:21:00,
2013-01-05 15:26:00,62.0,28.5,30.19,WNW,292,6.0,6.0,28,0.00,,SKC,0.00,VWS V14.01,2013-01-05 22:26:00,
2013-01-05 15:31:00,61.0,28.5,30.19,West,270,5.0,5.0,29,0.00,,SKC,0.00,VWS V14.01,2013-01-05 22:31:00,
2013-01-05 15:36:00,62.0,29.4,30.19,WSW,248,0.0,1.0,29,0.00,,SKC,0.00,VWS V14.01,2013-01-05 22:36:00,
2013-01-05 15:41:00,62.0,28.5,30.19,SW,225,2.0,3.0,28,0.00,,SKC,0.00,VWS V14.01,2013-01-05 22:41:00,
2013-01-05 15:46:00,63.0,29.4,30.19,SSW,202,0.0,1.0,28,0.00,,SKC,0.00,VWS V14.01,2013-01-05 22:46:00,
2013-01-05 15:51:00,63.0,28.5,30.19,South,180,3.0,4.0,27,0.00,,SKC,0.00,VWS V14.01,2013-01-05 22:51:00,
2013-01-05 15:56:00,63.0,27.6,30.19,WSW,248,0.0,0.0,26,0.00,,SKC,0.00,VWS V14.01,2013-01-05 22:56:00,
2013-01-05 16:01:00,63.0,28.5,30.19,ENE,68,0.0,0.0,27,0.00,,SKC,0.00,VWS V14.01,2013-01-05 23:01:00,
2013-01-05 16:06:00,63.0,29.4,30.19,South,180,1.0,1.0,28,0.00,,SKC,0.00,VWS V14.01,2013-01-05 23:06:00,
2013-01-05 16:11:00,63.0,29.4,30.19,South,180,3.0,3.0,28,0.00,,SKC,0.00,VWS V14.01,2013-01-05 23:11:00,
2013-01-05 16:16:00,62.0,29.4,30.19,South,180,1.0,3.0,29,0.00,,SKC,0.00,VWS V14.01,2013-01-05 23:16:00,
2013-01-05 16:21:00,62.0,29.4,30.19,SSW,202,1.0,1.0,29,0.00,,SKC,0.00,VWS V14.01,2013-01-05 23:21:00,
2013-01-05 16:26:00,61.0,29.4,30.19,SW,225,3.0,3.0,30,0.00,,SKC,0.00,VWS V14.01,2013-01-05 23:26:00,
2013-01-05 16:31:00,61.0,29.4,30.19,SW,225,1.0,2.0,30,0.00,,SKC,0.00,VWS V14.01,2013-01-05 23:31:00,
2013-01-05 16:36:00,61.0,30.2,30.19,SW,225,2.0,2.0,31,0.00,,SKC,0.00,VWS V14.01,2013-01-05 23:36:00,
2013-01-05 16:41:00,60.0,28.5,30.19,West,270,3.0,3.0,30,0.00,,SKC,0.00,VWS V14.01,2013-01-05 23:41:00,
2013-01-05 16:46:00,60.0,29.3,30.19,SW,225,4.0,4.0,31,0.00,,SKC,0.00,VWS V14.01,2013-01-05 23:46:00,
2013-01-05 16:51:00,59.0,29.2,30.19,WSW,248,3.0,4.0,32,0.00,,SKC,0.00,VWS V14.01,2013-01-05 23:51:00,
2013-01-05 16:56:00,59.0,29.2,30.19,WNW,292,3.0,3.0,32,0.00,,SKC,0.00,VWS V14.01,2013-01-05 23:56:00,
2013-01-05 17:01:00,59.0,30.0,30.19,WSW,248,2.0,3.0,33,0.00,,SKC,0.00,VWS V14.01,2013-01-06 00:01:00,
2013-01-05 17:06:00,58.0,29.1,30.19,West,270,2.0,3.0,33,0.00,,SKC,0.00,VWS V14.01,2013-01-06 00:06:00,
2013-01-05 17:11:00,58.0,29.8,30.19,West,270,1.0,1.0,34,0.00,,SKC,0.00,VWS V14.01,2013-01-06 00:11:00,
2013-01-05 17:16:00,58.0,29.8,30.19,West,270,1.0,1.0,34,0.00,,SKC,0.00,VWS V14.01,2013-01-06 00:16:00,
2013-01-05 17:21:00,57.0,29.6,30.19,West,270,3.0,4.0,35,0.00,,SKC,0.00,VWS V14.01,2013-01-06 00:21:00,
2013-01-05 17:26:00,57.0,30.3,30.19,WNW,292,3.0,3.0,36,0.00,,SKC,0.00,VWS V14.01,2013-01-06 00:26:00,
2013-01-05 17:31:00,56.0,30.1,30.20,WNW,292,3.0,4.0,37,0.00,,SKC,0.00,VWS V14.01,2013-01-06 00:31:00,
2013-01-05 17:36:00,56.0,30.1,30.20,WNW,292,3.0,3.0,37,0.00,,SKC,0.00,VWS V14.01,2013-01-06 00:36:00,
2013-01-05 17:41:00,55.0,29.9,30.20,WNW,292,3.0,3.0,38,0.00,,SKC,0.00,VWS V14.01,2013-01-06 00:41:00,
2013-01-05 17:46:00,55.0,30.5,30.20,NW,315,3.0,4.0,39,0.00,,SKC,0.00,VWS V14.01,2013-01-06 00:46:00,
2013-01-05 17:51:00,55.0,31.1,30.20,NW,315,3.0,4.0,40,0.00,,SKC,0.00,VWS V14.01,2013-01-06 00:51:00,
2013-01-05 17:56:00,55.0,29.9,30.20,NNE,22,1.0,2.0,38,0.00,,SKC,0.00,VWS V14.01,2013-01-06 00:56:00,
2013-01-05 18:01:00,55.0,27.9,30.20,NNE,22,0.0,1.0,35,0.00,,SKC,0.00,VWS V14.01,2013-01-06 01:01:00,
2013-01-05 18:06:00,55.0,27.9,30.20,NNE,22,2.0,3.0,35,0.00,,SKC,0.00,VWS V14.01,2013-01-06 01:06:00,
2013-01-05 18:11:00,54.0,25.6,30.20,NNE,22,0.0,0.0,33,0.00,,SKC,0.00,VWS V14.01,2013-01-06 01:11:00,
2013-01-05 18:16:00,54.0,26.3,30.20,NNE,22,0.0,1.0,34,0.00,,SKC,0.00,VWS V14.01,2013-01-06 01:16:00,
2013-01-05 18:21:00,54.0,26.3,30.20,NNE,22,0.0,0.0,34,0.00,,SKC,0.00,VWS V14.01,2013-01-06 01:21:00,
2013-01-05 18:26:00,53.0,26.1,30.20,NNE,22,0.0,0.0,35,0.00,,SKC,0.00,VWS V14.01,2013-01-06 01:26:00,
2013-01-05 18:31:00,52.0,25.9,30.20,NNE,22,0.0,0.0,36,0.00,,SKC,0.00,VWS V14.01,2013-01-06 01:31:00,
2013-01-05 18:36:00,52.0,26.5,30.20,NNE,22,0.0,0.0,37,0.00,,SKC,0.00,VWS V14.01,2013-01-06 01:36:00,
2013-01-05 18:41:00,51.0,25.7,30.20,North,0,2.0,3.0,37,0.00,,SKC,0.00,VWS V14.01,2013-01-06 01:41:00,
2013-01-05 18:46:00,51.0,26.3,30.20,NNE,22,4.0,5.0,38,0.00,,SKC,0.00,VWS V14.01,2013-01-06 01:46:00,
2013-01-05 18:51:00,51.0,26.3,30.20,North,0,4.0,4.0,38,0.00,,SKC,0.00,VWS V14.01,2013-01-06 01:51:00,
2013-01-05 18:56:00,50.0,26.0,30.20,NNE,22,3.0,3.0,39,0.00,,SKC,0.00,VWS V14.01,2013-01-06 01:56:00,
2013-01-05 19:01:00,50.0,26.0,30.20,North,0,0.0,0.0,39,0.00,,SKC,0.00,VWS V14.01,2013-01-06 02:01:00,
2013-01-05 19:06:00,50.0,26.6,30.20,NNE,22,0.0,0.0,40,0.00,,SKC,0.00,VWS V14.01,2013-01-06 02:06:00,
2013-01-05 19:11:00,49.0,26.3,30.20,NNE,22,0.0,1.0,41,0.00,,SKC,0.00,VWS V14.01,2013-01-06 02:11:00,
2013-01-05 19:16:00,49.0,26.3,30.20,North,0,3.0,5.0,41,0.00,,SKC,0.00,VWS V14.01,2013-01-06 02:16:00,
2013-01-05 19:21:00,49.0,25.8,30.20,NNE,22,4.0,4.0,40,0.00,,SKC,0.00,VWS V14.01,2013-01-06 02:21:00,
2013-01-05 19:26:00,49.0,25.8,30.20,North,0,3.0,3.0,40,0.00,,SKC,0.00,VWS V14.01,2013-01-06 02:26:00,
2013-01-05 19:31:00,49.0,25.8,30.20,NNE,22,2.0,3.0,40,0.00,,SKC,0.00,VWS V14.01,2013-01-06 02:31:00,
2013-01-05 19:36:00,49.0,25.8,30.20,NNE,22,0.0,0.0,40,0.00,,SKC,0.00,VWS V14.01,2013-01-06 02:36:00,
2013-01-05 19:41:00,49.0,26.3,30.20,North,0,0.0,0.0,41,0.00,,SKC,0.00,VWS V14.01,2013-01-06 02:41:00,
2013-01-05 19:46:00,48.0,25.4,30.20,North,0,0.0,1.0,41,0.00,,SKC,0.00,VWS V14.01,2013-01-06 02:46:00,
2013-01-05 19:51:00,48.0,26.0,30.20,North,0,0.0,0.0,42,0.00,,SKC,0.00,VWS V14.01,2013-01-06 02:51:00,
2013-01-05 19:56:00,48.0,26.6,30.20,North,0,0.0,0.0,43,0.00,,SKC,0.00,VWS V14.01,2013-01-06 02:56:00,
2013-01-05 20:01:00,47.0,25.7,30.20,North,0,0.0,0.0,43,0.00,,SKC,0.00,VWS V14.01,2013-01-06 03:01:00,
2013-01-05 20:06:00,47.0,26.2,30.20,North,0,0.0,0.0,44,0.00,,SKC,0.00,VWS V14.01,2013-01-06 03:06:00,
2013-01-05 20:11:00,46.0,25.9,30.20,North,0,0.0,0.0,45,0.00,,SKC,0.00,VWS V14.01,2013-01-06 03:11:00,
2013-01-05 20:16:00,46.0,26.4,30.20,NNE,22,0.0,1.0,46,0.00,,SKC,0.00,VWS V14.01,2013-01-06 03:16:00,
2013-01-05 20:21:00,46.0,26.4,30.20,NNE,22,0.0,0.0,46,0.00,,SKC,0.00,VWS V14.01,2013-01-06 03:21:00,
2013-01-05 20:26:00,45.0,26.5,30.20,NE,45,0.0,0.0,48,0.00,,SKC,0.00,VWS V14.01,2013-01-06 03:26:00,
2013-01-05 20:31:00,45.0,26.5,30.20,NE,45,0.0,1.0,48,0.00,,SKC,0.00,VWS V14.01,2013-01-06 03:31:00,
2013-01-05 20:36:00,45.0,26.5,30.20,NE,45,0.0,0.0,48,0.00,,SKC,0.00,VWS V14.01,2013-01-06 03:36:00,
2013-01-05 20:41:00,44.0,26.6,30.20,NNE,22,0.0,1.0,50,0.00,,SKC,0.00,VWS V14.01,2013-01-06 03:41:00,
2013-01-05 20:46:00,44.0,26.6,30.20,NNE,22,0.0,0.0,50,0.00,,SKC,0.00,VWS V14.01,2013-01-06 03:46:00,
2013-01-05 20:51:00,44.0,27.0,30.20,NE,45,0.0,0.0,51,0.00,,SKC,0.00,VWS V14.01,2013-01-06 03:51:00,
2013-01-05 20:56:00,43.0,26.6,30.20,ENE,68,0.0,0.0,52,0.00,,SKC,0.00,VWS V14.01,2013-01-06 03:56:00,
2013-01-05 21:01:00,43.0,27.0,30.20,ENE,68,0.0,1.0,53,0.00,,SKC,0.00,VWS V14.01,2013-01-06 04:01:00,
2013-01-05 21:06:00,43.0,27.0,30.20,ENE,68,0.0,0.0,53,0.00,,SKC,0.00,VWS V14.01,2013-01-06 04:06:00,
2013-01-05 21:11:00,42.0,26.6,30.20,NE,45,0.0,1.0,54,0.00,,SKC,0.00,VWS V14.01,2013-01-06 04:11:00,
2013-01-05 21:16:00,42.0,27.0,30.20,NE,45,1.0,2.0,55,0.00,,SKC,0.00,VWS V14.01,2013-01-06 04:16:00,
2013-01-05 21:21:00,42.0,27.0,30.19,North,0,2.0,3.0,55,0.00,,SKC,0.00,VWS V14.01,2013-01-06 04:21:00,
2013-01-05 21:26:00,41.0,26.5,30.19,North,0,2.0,2.0,56,0.00,,SKC,0.00,VWS V14.01,2013-01-06 04:26:00,
2013-01-05 21:31:00,41.0,26.5,30.19,NE,45,3.0,3.0,56,0.00,,SKC,0.00,VWS V14.01,2013-01-06 04:31:00,
2013-01-05 21:36:00,42.0,27.0,30.19,NNE,22,1.0,2.0,55,0.00,,SKC,0.00,VWS V14.01,2013-01-06 04:36:00,
2013-01-05 21:41:00,41.0,26.5,30.19,NNE,22,3.0,3.0,56,0.00,,SKC,0.00,VWS V14.01,2013-01-06 04:41:00,
2013-01-05 21:46:00,41.0,26.5,30.19,NNE,22,1.0,2.0,56,0.00,,SKC,0.00,VWS V14.01,2013-01-06 04:46:00,
2013-01-05 21:51:00,41.0,26.5,30.19,NNE,22,1.0,1.0,56,0.00,,SKC,0.00,VWS V14.01,2013-01-06 04:51:00,
2013-01-05 21:56:00,41.0,27.0,30.19,ENE,68,0.0,0.0,57,0.00,,SKC,0.00,VWS V14.01,2013-01-06 04:56:00,
2013-01-05 22:00:00,41.0,27.0,30.19,NE,45,0.0,0.0,57,0.00,,SKC,0.00,VWS V14.01,2013-01-06 05:00:00,
2013-01-05 22:01:00,41.0,27.0,30.19,NE,45,0.0,0.0,57,0.00,,SKC,0.00,VWS V14.01,2013-01-06 05:01:00,
2013-01-05 22:03:00,41.0,27.0,30.19,NE,45,0.0,0.0,57,0.00,,SKC,0.00,VWS V14.01,2013-01-06 05:03:00,
2013-01-05 22:07:00,41.0,27.0,30.19,NNE,22,1.0,1.0,57,0.00,,SKC,0.00,VWS V14.01,2013-01-06 05:07:00,
2013-01-05 22:12:00,41.0,27.0,30.19,North,0,0.0,1.0,57,0.00,,SKC,0.00,VWS V14.01,2013-01-06 05:12:00,
2013-01-05 22:17:00,41.0,27.0,30.19,NE,45,0.0,0.0,57,0.00,,SKC,0.00,VWS V14.01,2013-01-06 05:17:00,
2013-01-05 22:22:00,40.0,26.0,30.19,NE,45,0.0,1.0,57,0.00,,SKC,0.00,VWS V14.01,2013-01-06 05:22:00,
2013-01-05 22:27:00,40.0,26.0,30.20,NE,45,0.0,0.0,57,0.00,,SKC,0.00,VWS V14.01,2013-01-06 05:27:00,
2013-01-05 22:32:00,40.0,26.0,30.19,NE,45,0.0,0.0,57,0.00,,SKC,0.00,VWS V14.01,2013-01-06 05:32:00,
2013-01-05 22:37:00,40.0,26.4,30.19,NE,45,0.0,0.0,58,0.00,,SKC,0.00,VWS V14.01,2013-01-06 05:37:00,
2013-01-05 22:42:00,40.0,26.4,30.19,ENE,68,3.0,3.0,58,0.00,,SKC,0.00,VWS V14.01,2013-01-06 05:42:00,
2013-01-05 22:47:00,39.0,25.5,30.19,ENE,68,1.0,1.0,58,0.00,,SKC,0.00,VWS V14.01,2013-01-06 05:47:00,
2013-01-05 22:52:00,39.0,25.9,30.19,ENE,68,2.0,2.0,59,0.00,,SKC,0.00,VWS V14.01,2013-01-06 05:52:00,
2013-01-05 22:57:00,39.0,25.9,30.19,NE,45,1.0,1.0,59,0.00,,SKC,0.00,VWS V14.01,2013-01-06 05:57:00,
2013-01-05 23:02:00,39.0,25.9,30.19,NE,45,1.0,2.0,59,0.00,,SKC,0.00,VWS V14.01,2013-01-06 06:02:00,
2013-01-05 23:07:00,39.0,25.5,30.19,North,0,3.0,3.0,58,0.00,,SKC,0.00,VWS V14.01,2013-01-06 06:07:00,
2013-01-05 23:12:00,39.0,25.5,30.19,North,0,4.0,5.0,58,0.00,,SKC,0.00,VWS V14.01,2013-01-06 06:12:00,
2013-01-05 23:17:00,39.0,25.1,30.19,North,0,3.0,3.0,57,0.00,,SKC,0.00,VWS V14.01,2013-01-06 06:17:00,
2013-01-05 23:22:00,39.0,25.1,30.19,NNE,22,3.0,3.0,57,0.00,,SKC,0.00,VWS V14.01,2013-01-06 06:22:00,
2013-01-05 23:27:00,39.0,25.1,30.19,North,0,3.0,3.0,57,0.00,,SKC,0.00,VWS V14.01,2013-01-06 06:27:00,
2013-01-05 23:32:00,39.0,24.6,30.19,ENE,68,2.0,2.0,56,0.00,,SKC,0.00,VWS V14.01,2013-01-06 06:32:00,
2013-01-05 23:37:00,39.0,25.1,30.18,ENE,68,1.0,1.0,57,0.00,,SKC,0.00,VWS V14.01,2013-01-06 06:37:00,
2013-01-05 23:42:00,39.0,25.5,30.19,ENE,68,2.0,2.0,58,0.00,,SKC,0.00,VWS V14.01,2013-01-06 06:42:00,
2013-01-05 23:47:00,38.0,25.0,30.18,NNE,22,0.0,1.0,59,0.00,,SKC,0.00,VWS V14.01,2013-01-06 06:47:00,
2013-01-05 23:52:00,38.0,25.0,30.18,NNE,22,2.0,2.0,59,0.00,,SKC,0.00,VWS V14.01,2013-01-06 06:52:00,
2013-01-05 23:57:00,39.0,25.5,30.18,NNE,22,3.0,3.0,58,0.00,,SKC,0.00,VWS V14.01,2013-01-06 06:57:00,